sensor_id;sensor_type;location;lat;lon;timestamp;temperature;humidity
52397;DHT22;38322;53.108;6.308;2023-03-13T06:02:10;10.40;99.90
52397;DHT22;38322;53.108;6.308;2023-03-13T06:04:36;10.40;99.90
52397;DHT22;38322;53.108;6.308;2023-03-13T06:07:01;10.40;99.90
52397;DHT22;38322;53.108;6.308;2023-03-13T06:09:27;10.30;99.90
52397;DHT22;38322;53.108;6.308;2023-03-13T06:11:53;10.30;99.90
52397;DHT22;38322;53.108;6.308;2023-03-13T06:14:19;10.30;99.90
52397;DHT22;38322;53.108;6.308;2023-03-13T06:16:45;10.30;99.90
52397;DHT22;38322;53.108;6.308;2023-03-13T06:19:11;10.30;99.90
52397;DHT22;38322;53.108;6.308;2023-03-13T06:21:37;10.30;99.90
52397;DHT22;38322;53.108;6.308;2023-03-13T06:24:03;10.30;99.90
52397;DHT22;38322;53.108;6.308;2023-03-13T06:26:29;10.30;99.90
52397;DHT22;38322;53.108;6.308;2023-03-13T06:28:55;10.30;99.90
52397;DHT22;38322;53.108;6.308;2023-03-13T06:31:21;10.40;99.90
52397;DHT22;38322;53.108;6.308;2023-03-13T06:33:47;10.40;99.90
52397;DHT22;38322;53.108;6.308;2023-03-13T06:36:13;10.50;99.90
52397;DHT22;38322;53.108;6.308;2023-03-13T06:38:38;10.50;99.90
52397;DHT22;38322;53.108;6.308;2023-03-13T06:41:04;10.50;99.90
52397;DHT22;38322;53.108;6.308;2023-03-13T06:43:30;10.60;99.90
52397;DHT22;38322;53.108;6.308;2023-03-13T06:45:56;10.50;99.90
52397;DHT22;38322;53.108;6.308;2023-03-13T06:48:22;10.60;99.90
52397;DHT22;38322;53.108;6.308;2023-03-13T06:50:48;10.60;99.90
52397;DHT22;38322;53.108;6.308;2023-03-13T06:53:17;10.60;99.90
52397;DHT22;38322;53.108;6.308;2023-03-13T06:55:43;10.70;99.90
52397;DHT22;38322;53.108;6.308;2023-03-13T06:58:09;10.70;99.90
52397;DHT22;38322;53.108;6.308;2023-03-13T07:00:35;10.70;99.90
52397;DHT22;38322;53.108;6.308;2023-03-13T07:03:00;10.70;99.90
52397;DHT22;38322;53.108;6.308;2023-03-13T07:05:27;10.70;99.90
52397;DHT22;38322;53.108;6.308;2023-03-13T07:07:53;10.70;99.90
52397;DHT22;38322;53.108;6.308;2023-03-13T07:10:18;10.70;99.90
52397;DHT22;38322;53.108;6.308;2023-03-13T07:12:44;10.70;99.90
52397;DHT22;38322;53.108;6.308;2023-03-13T07:15:10;10.80;99.90
52397;DHT22;38322;53.108;6.308;2023-03-13T07:17:36;10.70;99.90
52397;DHT22;38322;53.108;6.308;2023-03-13T07:20:03;10.80;99.90
52397;DHT22;38322;53.108;6.308;2023-03-13T07:22:31;10.80;99.90
52397;DHT22;38322;53.108;6.308;2023-03-13T07:24:56;10.80;99.90
52397;DHT22;38322;53.108;6.308;2023-03-13T07:27:22;10.80;99.90
52397;DHT22;38322;53.108;6.308;2023-03-13T07:29:48;10.80;99.90
52397;DHT22;38322;53.108;6.308;2023-03-13T07:32:14;10.80;99.90
52397;DHT22;38322;53.108;6.308;2023-03-13T07:34:40;10.70;99.90
52397;DHT22;38322;53.108;6.308;2023-03-13T07:37:11;10.70;99.90
52397;DHT22;38322;53.108;6.308;2023-03-13T07:39:36;10.80;99.90
52397;DHT22;38322;53.108;6.308;2023-03-13T07:42:02;10.80;99.90
52397;DHT22;38322;53.108;6.308;2023-03-13T07:44:28;10.70;99.90
52397;DHT22;38322;53.108;6.308;2023-03-13T07:46:54;10.70;99.90
52397;DHT22;38322;53.108;6.308;2023-03-13T07:49:20;10.70;99.90
52397;DHT22;38322;53.108;6.308;2023-03-13T07:51:46;10.70;99.90
52397;DHT22;38322;53.108;6.308;2023-03-13T07:54:13;10.70;99.90
52397;DHT22;38322;53.108;6.308;2023-03-13T07:56:39;10.70;99.90
52397;DHT22;38322;53.108;6.308;2023-03-13T07:59:05;10.70;99.90
52397;DHT22;38322;53.108;6.308;2023-03-13T08:01:31;10.70;99.90
52397;DHT22;38322;53.108;6.308;2023-03-13T08:03:57;10.70;99.90
52397;DHT22;38322;53.108;6.308;2023-03-13T08:06:29;10.80;99.90
52397;DHT22;38322;53.108;6.308;2023-03-13T08:08:57;10.80;99.90
52397;DHT22;38322;53.108;6.308;2023-03-13T08:11:24;10.80;99.90
52397;DHT22;38322;53.108;6.308;2023-03-13T08:13:52;10.90;99.90
52397;DHT22;38322;53.108;6.308;2023-03-13T08:16:20;10.90;99.90
52397;DHT22;38322;53.108;6.308;2023-03-13T08:18:48;10.90;99.90
52397;DHT22;38322;53.108;6.308;2023-03-13T08:21:18;10.90;99.90
52397;DHT22;38322;53.108;6.308;2023-03-13T08:23:46;11.00;99.90
52397;DHT22;38322;53.108;6.308;2023-03-13T08:26:15;11.00;99.90
52397;DHT22;38322;53.108;6.308;2023-03-13T08:28:42;11.10;99.90
52397;DHT22;38322;53.108;6.308;2023-03-13T08:31:11;11.10;99.90
52397;DHT22;38322;53.108;6.308;2023-03-13T08:33:38;11.10;99.90
52397;DHT22;38322;53.108;6.308;2023-03-13T08:38:35;11.20;99.90
52397;DHT22;38322;53.108;6.308;2023-03-13T08:41:01;11.40;99.90
52397;DHT22;38322;53.108;6.308;2023-03-13T08:43:27;11.60;99.90
52397;DHT22;38322;53.108;6.308;2023-03-13T08:45:55;11.50;99.90
52397;DHT22;38322;53.108;6.308;2023-03-13T08:48:21;11.60;99.90
52397;DHT22;38322;53.108;6.308;2023-03-13T08:50:47;11.70;99.90
52397;DHT22;38322;53.108;6.308;2023-03-13T08:53:23;11.80;99.90
52397;DHT22;38322;53.108;6.308;2023-03-13T08:55:52;11.80;99.90
52397;DHT22;38322;53.108;6.308;2023-03-13T08:58:18;11.90;99.90
52397;DHT22;38322;53.108;6.308;2023-03-13T09:00:44;12.00;99.90
52397;DHT22;38322;53.108;6.308;2023-03-13T09:03:10;12.00;99.90
52397;DHT22;38322;53.108;6.308;2023-03-13T09:05:36;12.00;99.90
52397;DHT22;38322;53.108;6.308;2023-03-13T09:08:03;12.00;99.90
52397;DHT22;38322;53.108;6.308;2023-03-13T09:10:31;11.90;99.90
52397;DHT22;38322;53.108;6.308;2023-03-13T09:12:57;11.90;99.90
52397;DHT22;38322;53.108;6.308;2023-03-13T09:15:23;11.80;99.90
52397;DHT22;38322;53.108;6.308;2023-03-13T09:17:49;11.80;99.90
52397;DHT22;38322;53.108;6.308;2023-03-13T09:20:15;11.80;99.90
52397;DHT22;38322;53.108;6.308;2023-03-13T09:22:41;11.80;99.90
52397;DHT22;38322;53.108;6.308;2023-03-13T09:25:07;11.70;99.90
52397;DHT22;38322;53.108;6.308;2023-03-13T09:27:32;11.80;99.90
52397;DHT22;38322;53.108;6.308;2023-03-13T09:29:58;11.70;99.90
52397;DHT22;38322;53.108;6.308;2023-03-13T09:32:24;11.70;99.90
52397;DHT22;38322;53.108;6.308;2023-03-13T09:34:50;11.70;99.90
52397;DHT22;38322;53.108;6.308;2023-03-13T09:37:16;11.80;99.90
52397;DHT22;38322;53.108;6.308;2023-03-13T09:39:42;11.80;99.90
52397;DHT22;38322;53.108;6.308;2023-03-13T09:42:15;11.80;99.90
52397;DHT22;38322;53.108;6.308;2023-03-13T09:44:48;11.80;99.90
52397;DHT22;38322;53.108;6.308;2023-03-13T09:47:28;11.90;99.90
52397;DHT22;38322;53.108;6.308;2023-03-13T09:50:00;11.90;99.90
52397;DHT22;38322;53.108;6.308;2023-03-13T09:52:32;12.00;99.90
52397;DHT22;38322;53.108;6.308;2023-03-13T09:55:02;12.00;99.90
52397;DHT22;38322;53.108;6.308;2023-03-13T09:57:38;12.10;99.90
52397;DHT22;38322;53.108;6.308;2023-03-13T10:00:12;12.20;99.90
52397;DHT22;38322;53.108;6.308;2023-03-13T10:02:44;12.30;99.90
52397;DHT22;38322;53.108;6.308;2023-03-13T10:05:24;12.40;99.90
52397;DHT22;38322;53.108;6.308;2023-03-13T10:08:00;12.50;99.90
52397;DHT22;38322;53.108;6.308;2023-03-13T10:10:37;12.50;99.90
52397;DHT22;38322;53.108;6.308;2023-03-13T10:16:02;12.70;99.90
52397;DHT22;38322;53.108;6.308;2023-03-13T10:18:30;12.80;99.90
52397;DHT22;38322;53.108;6.308;2023-03-13T10:20:59;12.80;99.90
52397;DHT22;38322;53.108;6.308;2023-03-13T10:23:27;12.90;99.90
52397;DHT22;38322;53.108;6.308;2023-03-13T10:25:54;13.00;99.90
52397;DHT22;38322;53.108;6.308;2023-03-13T10:28:20;13.00;99.90
52397;DHT22;38322;53.108;6.308;2023-03-13T10:30:49;13.00;99.90
52397;DHT22;38322;53.108;6.308;2023-03-13T10:33:20;13.00;99.90
52397;DHT22;38322;53.108;6.308;2023-03-13T10:36:06;13.10;99.90
52397;DHT22;38322;53.108;6.308;2023-03-13T10:38:35;13.20;99.90
52397;DHT22;38322;53.108;6.308;2023-03-13T10:41:22;13.20;99.90
52397;DHT22;38322;53.108;6.308;2023-03-13T10:43:54;13.10;99.90
52397;DHT22;38322;53.108;6.308;2023-03-13T10:46:28;13.10;99.90
52397;DHT22;38322;53.108;6.308;2023-03-13T10:48:56;13.00;99.90
52397;DHT22;38322;53.108;6.308;2023-03-13T10:51:24;13.00;99.90
52397;DHT22;38322;53.108;6.308;2023-03-13T10:53:54;13.00;99.90
52397;DHT22;38322;53.108;6.308;2023-03-13T10:56:28;13.10;99.90
52397;DHT22;38322;53.108;6.308;2023-03-13T10:58:55;13.10;99.90
52397;DHT22;38322;53.108;6.308;2023-03-13T11:01:28;13.00;99.90
52397;DHT22;38322;53.108;6.308;2023-03-13T11:03:57;13.00;99.90
52397;DHT22;38322;53.108;6.308;2023-03-13T11:06:31;13.00;99.90
52397;DHT22;38322;53.108;6.308;2023-03-13T11:09:13;13.10;99.90
52397;DHT22;38322;53.108;6.308;2023-03-13T11:11:50;13.20;99.90
52397;DHT22;38322;53.108;6.308;2023-03-13T11:14:20;13.30;99.90
52397;DHT22;38322;53.108;6.308;2023-03-13T11:16:49;13.30;99.90
52397;DHT22;38322;53.108;6.308;2023-03-13T11:19:30;13.30;99.90
52397;DHT22;38322;53.108;6.308;2023-03-13T11:27:35;13.50;99.90
52397;DHT22;38322;53.108;6.308;2023-03-13T11:35:20;13.40;99.90
52397;DHT22;38322;53.108;6.308;2023-03-13T11:37:51;13.40;99.90
52397;DHT22;38322;53.108;6.308;2023-03-13T11:48:36;13.60;99.90
52397;DHT22;38322;53.108;6.308;2023-03-13T11:56:46;13.60;99.90
52397;DHT22;38322;53.108;6.308;2023-03-13T12:01:52;13.60;99.90
52397;DHT22;38322;53.108;6.308;2023-03-13T12:04:25;13.80;99.90
52397;DHT22;38322;53.108;6.308;2023-03-13T12:07:00;13.90;99.90
52397;DHT22;38322;53.108;6.308;2023-03-13T12:12:00;13.90;99.90
52397;DHT22;38322;53.108;6.308;2023-03-13T12:14:38;13.90;99.90
52397;DHT22;38322;53.108;6.308;2023-03-13T12:17:09;13.90;99.90
52397;DHT22;38322;53.108;6.308;2023-03-13T12:19:46;13.90;99.90
52397;DHT22;38322;53.108;6.308;2023-03-13T12:22:22;13.80;99.90
52397;DHT22;38322;53.108;6.308;2023-03-13T12:25:02;13.80;99.90
52397;DHT22;38322;53.108;6.308;2023-03-13T12:27:34;13.70;99.90
52397;DHT22;38322;53.108;6.308;2023-03-13T12:32:34;13.80;99.90
52397;DHT22;38322;53.108;6.308;2023-03-13T12:35:06;13.70;99.90
52397;DHT22;38322;53.108;6.308;2023-03-13T12:37:41;13.80;99.90
52397;DHT22;38322;53.108;6.308;2023-03-13T12:45:16;13.80;99.90
52397;DHT22;38322;53.108;6.308;2023-03-13T12:48:12;13.80;99.90
52397;DHT22;38322;53.108;6.308;2023-03-13T12:51:00;13.80;99.90
52397;DHT22;38322;53.108;6.308;2023-03-13T12:53:39;13.80;99.90
52397;DHT22;38322;53.108;6.308;2023-03-13T13:03:57;13.80;99.90
52397;DHT22;38322;53.108;6.308;2023-03-13T13:06:24;13.80;99.90
52397;DHT22;38322;53.108;6.308;2023-03-13T13:11:42;13.80;99.90
52397;DHT22;38322;53.108;6.308;2023-03-13T13:16:47;13.70;99.90
52397;DHT22;38322;53.108;6.308;2023-03-13T13:24:55;13.70;99.90
52397;DHT22;38322;53.108;6.308;2023-03-13T13:29:57;13.60;99.90
52397;DHT22;38322;53.108;6.308;2023-03-13T13:32:38;13.60;99.90
52397;DHT22;38322;53.108;6.308;2023-03-13T13:35:18;13.60;99.90
52397;DHT22;38322;53.108;6.308;2023-03-13T13:37:44;13.60;99.90
52397;DHT22;38322;53.108;6.308;2023-03-13T13:40:19;13.60;99.90
52397;DHT22;38322;53.108;6.308;2023-03-13T13:42:47;13.60;99.90
52397;DHT22;38322;53.108;6.308;2023-03-13T13:47:42;13.60;99.90
52397;DHT22;38322;53.108;6.308;2023-03-13T13:50:24;13.60;99.90
52397;DHT22;38322;53.108;6.308;2023-03-13T13:52:51;13.60;99.90
52397;DHT22;38322;53.108;6.308;2023-03-13T13:55:28;13.50;99.90
52397;DHT22;38322;53.108;6.308;2023-03-13T13:58:13;13.50;99.90
52397;DHT22;38322;53.108;6.308;2023-03-13T14:00:49;13.50;99.90
52397;DHT22;38322;53.108;6.308;2023-03-13T14:05:51;13.50;99.90
52397;DHT22;38322;53.108;6.308;2023-03-13T14:08:26;13.50;99.90
52397;DHT22;38322;53.108;6.308;2023-03-13T14:11:25;13.60;99.90
52397;DHT22;38322;53.108;6.308;2023-03-13T14:16:44;13.70;99.90
52397;DHT22;38322;53.108;6.308;2023-03-13T14:19:25;13.80;99.90
52397;DHT22;38322;53.108;6.308;2023-03-13T14:22:04;13.80;99.90
52397;DHT22;38322;53.108;6.308;2023-03-13T14:24:30;13.70;99.90
52397;DHT22;38322;53.108;6.308;2023-03-13T14:26:56;13.80;99.90
52397;DHT22;38322;53.108;6.308;2023-03-13T14:29:22;13.70;99.90
52397;DHT22;38322;53.108;6.308;2023-03-13T14:31:53;13.70;99.90
52397;DHT22;38322;53.108;6.308;2023-03-13T14:34:19;13.70;99.90
52397;DHT22;38322;53.108;6.308;2023-03-13T14:36:55;13.70;99.90
52397;DHT22;38322;53.108;6.308;2023-03-13T14:39:36;13.70;99.90
52397;DHT22;38322;53.108;6.308;2023-03-13T14:42:08;13.70;99.90
52397;DHT22;38322;53.108;6.308;2023-03-13T14:44:35;13.60;99.90
52397;DHT22;38322;53.108;6.308;2023-03-13T14:47:07;13.50;99.90
52397;DHT22;38322;53.108;6.308;2023-03-13T14:49:39;13.50;99.90
52397;DHT22;38322;53.108;6.308;2023-03-13T14:52:29;13.50;99.90
52397;DHT22;38322;53.108;6.308;2023-03-13T14:54:58;13.50;99.90
52397;DHT22;38322;53.108;6.308;2023-03-13T14:57:28;13.50;99.90
52397;DHT22;38322;53.108;6.308;2023-03-13T15:00:20;13.40;99.90
52397;DHT22;38322;53.108;6.308;2023-03-13T15:02:41;13.40;99.90
52397;DHT22;38322;53.108;6.308;2023-03-13T15:05:30;13.40;99.90
52397;DHT22;38322;53.108;6.308;2023-03-13T15:07:56;13.40;99.90
52397;DHT22;38322;53.108;6.308;2023-03-13T15:10:30;13.40;99.90
52397;DHT22;38322;53.108;6.308;2023-03-13T15:12:57;13.30;99.90
52397;DHT22;38322;53.108;6.308;2023-03-13T15:15:24;13.30;99.90
52397;DHT22;38322;53.108;6.308;2023-03-13T15:17:50;13.30;99.90
52397;DHT22;38322;53.108;6.308;2023-03-13T15:20:16;13.20;99.90
52397;DHT22;38322;53.108;6.308;2023-03-13T15:22:44;13.20;99.90
52397;DHT22;38322;53.108;6.308;2023-03-13T15:25:18;13.20;99.90
52397;DHT22;38322;53.108;6.308;2023-03-13T15:27:45;13.20;99.90
52397;DHT22;38322;53.108;6.308;2023-03-13T15:30:17;13.10;99.90
52397;DHT22;38322;53.108;6.308;2023-03-13T15:32:43;13.10;99.90
52397;DHT22;38322;53.108;6.308;2023-03-13T15:35:27;13.10;99.90
52397;DHT22;38322;53.108;6.308;2023-03-13T15:37:53;13.00;99.90
52397;DHT22;38322;53.108;6.308;2023-03-13T15:40:19;12.90;99.90
52397;DHT22;38322;53.108;6.308;2023-03-13T15:42:45;12.90;99.90
52397;DHT22;38322;53.108;6.308;2023-03-13T15:45:11;12.80;99.90
52397;DHT22;38322;53.108;6.308;2023-03-13T15:47:37;12.90;99.90
52397;DHT22;38322;53.108;6.308;2023-03-13T15:50:05;12.80;99.90
52397;DHT22;38322;53.108;6.308;2023-03-13T15:52:31;12.80;99.90
52397;DHT22;38322;53.108;6.308;2023-03-13T15:54:58;12.70;99.90
52397;DHT22;38322;53.108;6.308;2023-03-13T15:57:26;12.70;99.90
52397;DHT22;38322;53.108;6.308;2023-03-13T15:59:52;12.60;99.90
52397;DHT22;38322;53.108;6.308;2023-03-13T16:02:21;12.60;99.90
52397;DHT22;38322;53.108;6.308;2023-03-13T16:04:48;12.60;99.90
52397;DHT22;38322;53.108;6.308;2023-03-13T16:07:18;12.60;99.90
52397;DHT22;38322;53.108;6.308;2023-03-13T16:09:45;12.50;99.90
52397;DHT22;38322;53.108;6.308;2023-03-13T16:12:11;12.50;99.90
52397;DHT22;38322;53.108;6.308;2023-03-13T16:14:38;12.50;99.90
52397;DHT22;38322;53.108;6.308;2023-03-13T16:17:14;12.50;99.90
52397;DHT22;38322;53.108;6.308;2023-03-13T16:19:41;12.40;99.90
52397;DHT22;38322;53.108;6.308;2023-03-13T16:22:07;12.30;99.90
52397;DHT22;38322;53.108;6.308;2023-03-13T16:24:32;12.30;99.90
52397;DHT22;38322;53.108;6.308;2023-03-13T16:26:58;12.30;99.90
52397;DHT22;38322;53.108;6.308;2023-03-13T16:29:24;12.20;99.90
52397;DHT22;38322;53.108;6.308;2023-03-13T16:31:50;12.20;99.90
52397;DHT22;38322;53.108;6.308;2023-03-13T16:34:16;12.20;99.90
52397;DHT22;38322;53.108;6.308;2023-03-13T16:36:43;12.20;99.90
52397;DHT22;38322;53.108;6.308;2023-03-13T16:39:13;12.10;99.90
52397;DHT22;38322;53.108;6.308;2023-03-13T16:41:40;12.00;99.90
52397;DHT22;38322;53.108;6.308;2023-03-13T16:44:06;12.00;99.90
52397;DHT22;38322;53.108;6.308;2023-03-13T16:46:36;12.00;99.90
52397;DHT22;38322;53.108;6.308;2023-03-13T16:49:02;11.90;99.90
52397;DHT22;38322;53.108;6.308;2023-03-13T16:51:28;11.90;99.90
52397;DHT22;38322;53.108;6.308;2023-03-13T16:53:56;11.80;99.90
52397;DHT22;38322;53.108;6.308;2023-03-13T16:56:29;11.90;99.90
52397;DHT22;38322;53.108;6.308;2023-03-13T16:58:56;11.80;99.90
52397;DHT22;38322;53.108;6.308;2023-03-13T17:01:23;11.70;99.90
52397;DHT22;38322;53.108;6.308;2023-03-13T17:03:50;11.70;99.90
52397;DHT22;38322;53.108;6.308;2023-03-13T17:06:20;11.70;99.90
52397;DHT22;38322;53.108;6.308;2023-03-13T17:08:46;11.70;99.90
52397;DHT22;38322;53.108;6.308;2023-03-13T17:11:14;11.60;99.90
52397;DHT22;38322;53.108;6.308;2023-03-13T17:13:43;11.60;99.90
52397;DHT22;38322;53.108;6.308;2023-03-13T17:16:12;11.50;99.90
52397;DHT22;38322;53.108;6.308;2023-03-13T17:18:40;11.50;99.90
52397;DHT22;38322;53.108;6.308;2023-03-13T17:21:11;11.50;99.90
52397;DHT22;38322;53.108;6.308;2023-03-13T17:23:37;11.40;99.90
52397;DHT22;38322;53.108;6.308;2023-03-13T17:26:03;11.30;99.90
52397;DHT22;38322;53.108;6.308;2023-03-13T17:28:30;11.20;99.90
52397;DHT22;38322;53.108;6.308;2023-03-13T17:30:56;11.30;99.90
52397;DHT22;38322;53.108;6.308;2023-03-13T17:33:22;11.20;99.90
52397;DHT22;38322;53.108;6.308;2023-03-13T17:35:48;11.20;99.90
52397;DHT22;38322;53.108;6.308;2023-03-13T17:38:14;11.10;99.90
52397;DHT22;38322;53.108;6.308;2023-03-13T17:40:39;11.10;99.90
52397;DHT22;38322;53.108;6.308;2023-03-13T17:43:06;11.10;99.90
52397;DHT22;38322;53.108;6.308;2023-03-13T17:45:33;11.00;99.90
52397;DHT22;38322;53.108;6.308;2023-03-13T17:48:01;11.00;99.90
52397;DHT22;38322;53.108;6.308;2023-03-13T17:50:27;11.00;99.90
52397;DHT22;38322;53.108;6.308;2023-03-13T17:52:54;11.00;99.90
52397;DHT22;38322;53.108;6.308;2023-03-13T17:55:21;10.90;99.90
52397;DHT22;38322;53.108;6.308;2023-03-13T17:57:47;10.90;99.90
52397;DHT22;38322;53.108;6.308;2023-03-13T18:00:20;10.80;99.90
52397;DHT22;38322;53.108;6.308;2023-03-13T18:02:46;10.80;99.90
52397;DHT22;38322;53.108;6.308;2023-03-13T18:05:12;10.80;99.90
52397;DHT22;38322;53.108;6.308;2023-03-13T18:07:38;10.70;99.90
52397;DHT22;38322;53.108;6.308;2023-03-13T18:10:17;10.70;99.90
52397;DHT22;38322;53.108;6.308;2023-03-13T18:12:43;10.70;99.90
52397;DHT22;38322;53.108;6.308;2023-03-13T18:15:10;10.60;99.90
52397;DHT22;38322;53.108;6.308;2023-03-13T18:17:36;10.60;99.90
52397;DHT22;38322;53.108;6.308;2023-03-13T18:20:02;10.50;99.90
52397;DHT22;38322;53.108;6.308;2023-03-13T18:22:29;10.50;99.90
52397;DHT22;38322;53.108;6.308;2023-03-13T18:24:55;10.50;99.90
52397;DHT22;38322;53.108;6.308;2023-03-13T18:27:21;10.50;99.90
52397;DHT22;38322;53.108;6.308;2023-03-13T18:29:48;10.50;99.90
52397;DHT22;38322;53.108;6.308;2023-03-13T18:32:15;10.50;99.90
52397;DHT22;38322;53.108;6.308;2023-03-13T18:34:42;10.50;99.90
52397;DHT22;38322;53.108;6.308;2023-03-13T18:37:20;10.50;99.90
52397;DHT22;38322;53.108;6.308;2023-03-13T18:39:47;10.40;99.90
52397;DHT22;38322;53.108;6.308;2023-03-13T18:42:15;10.50;99.90
52397;DHT22;38322;53.108;6.308;2023-03-13T18:44:41;10.40;99.90
52397;DHT22;38322;53.108;6.308;2023-03-13T18:47:11;10.40;99.90
52397;DHT22;38322;53.108;6.308;2023-03-13T18:49:38;10.40;99.90
52397;DHT22;38322;53.108;6.308;2023-03-13T18:52:04;10.30;99.90
52397;DHT22;38322;53.108;6.308;2023-03-13T18:54:30;10.30;99.90
52397;DHT22;38322;53.108;6.308;2023-03-13T18:56:56;10.40;99.90
52397;DHT22;38322;53.108;6.308;2023-03-13T18:59:22;10.40;99.90
52397;DHT22;38322;53.108;6.308;2023-03-13T19:01:48;10.30;99.90
52397;DHT22;38322;53.108;6.308;2023-03-13T19:04:16;10.40;99.90
52397;DHT22;38322;53.108;6.308;2023-03-13T19:06:42;10.30;99.90
52397;DHT22;38322;53.108;6.308;2023-03-13T19:09:15;10.30;99.90
52397;DHT22;38322;53.108;6.308;2023-03-13T19:11:42;10.20;99.90
52397;DHT22;38322;53.108;6.308;2023-03-13T19:14:09;10.20;99.90
52397;DHT22;38322;53.108;6.308;2023-03-13T19:16:38;10.30;99.90
52397;DHT22;38322;53.108;6.308;2023-03-13T19:19:14;10.30;99.90
52397;DHT22;38322;53.108;6.308;2023-03-13T19:21:40;10.30;99.90
52397;DHT22;38322;53.108;6.308;2023-03-13T19:24:06;10.20;99.90
52397;DHT22;38322;53.108;6.308;2023-03-13T19:26:43;10.20;99.90
52397;DHT22;38322;53.108;6.308;2023-03-13T19:29:13;10.30;99.90
52397;DHT22;38322;53.108;6.308;2023-03-13T19:31:40;10.30;99.90
52397;DHT22;38322;53.108;6.308;2023-03-13T19:34:06;10.20;99.90
52397;DHT22;38322;53.108;6.308;2023-03-13T19:36:37;10.20;99.90
52397;DHT22;38322;53.108;6.308;2023-03-13T19:39:04;10.20;99.90
52397;DHT22;38322;53.108;6.308;2023-03-13T19:41:35;10.20;99.90
52397;DHT22;38322;53.108;6.308;2023-03-13T19:44:01;10.20;99.90
52397;DHT22;38322;53.108;6.308;2023-03-13T19:46:28;10.20;99.90
52397;DHT22;38322;53.108;6.308;2023-03-13T19:48:56;10.20;99.90
52397;DHT22;38322;53.108;6.308;2023-03-13T19:51:23;10.30;99.90
52397;DHT22;38322;53.108;6.308;2023-03-13T19:53:50;10.20;99.90
52397;DHT22;38322;53.108;6.308;2023-03-13T19:56:19;10.20;99.90
52397;DHT22;38322;53.108;6.308;2023-03-13T19:58:48;10.20;99.90
52397;DHT22;38322;53.108;6.308;2023-03-13T20:01:15;10.20;99.90
52397;DHT22;38322;53.108;6.308;2023-03-13T20:03:42;10.10;99.90
52397;DHT22;38322;53.108;6.308;2023-03-13T20:06:15;10.10;99.90
52397;DHT22;38322;53.108;6.308;2023-03-13T20:08:41;10.10;99.90
52397;DHT22;38322;53.108;6.308;2023-03-13T20:11:07;10.00;99.90
52397;DHT22;38322;53.108;6.308;2023-03-13T20:13:33;10.00;99.90
52397;DHT22;38322;53.108;6.308;2023-03-13T20:16:01;10.00;99.90
52397;DHT22;38322;53.108;6.308;2023-03-13T20:18:27;10.00;99.90
52397;DHT22;38322;53.108;6.308;2023-03-13T20:20:53;9.90;99.90
52397;DHT22;38322;53.108;6.308;2023-03-13T20:23:18;9.90;99.90
52397;DHT22;38322;53.108;6.308;2023-03-13T20:25:44;9.90;99.90
52397;DHT22;38322;53.108;6.308;2023-03-13T20:28:11;9.80;99.90
52397;DHT22;38322;53.108;6.308;2023-03-13T20:30:40;9.80;99.90
52397;DHT22;38322;53.108;6.308;2023-03-13T20:33:08;9.80;99.90
52397;DHT22;38322;53.108;6.308;2023-03-13T20:35:34;9.80;99.90
52397;DHT22;38322;53.108;6.308;2023-03-13T20:38:01;9.80;99.90
52397;DHT22;38322;53.108;6.308;2023-03-13T20:40:31;9.80;99.90
52397;DHT22;38322;53.108;6.308;2023-03-13T20:42:57;9.80;99.90
52397;DHT22;38322;53.108;6.308;2023-03-13T20:45:23;9.80;99.90
52397;DHT22;38322;53.108;6.308;2023-03-13T20:47:49;9.80;99.90
52397;DHT22;38322;53.108;6.308;2023-03-13T20:50:16;9.70;99.90
52397;DHT22;38322;53.108;6.308;2023-03-13T20:52:41;9.70;99.90
52397;DHT22;38322;53.108;6.308;2023-03-13T20:55:08;9.70;99.90
52397;DHT22;38322;53.108;6.308;2023-03-13T20:57:35;9.60;99.90
52397;DHT22;38322;53.108;6.308;2023-03-13T21:00:01;9.60;99.90
